Time;durP1;ratioP1;P1;durP2;ratioP2;P2;SDS_P1;SDS_P2;PMS_P1;PMS_P2;Temp;Humidity;BMP_temperature;BMP_pressure;BME280_temperature;BME280_humidity;BME280_pressure;Samples;Min_cycle;Max_cycle;Signal;HPM_P1;HPM_P2
2022/03/28 00:01:40;;;;;;;2.67;2.47;;;18.60;41.00;;;;;;5009560;28;20219;-59
2022/03/28 00:04:06;;;;;;;2.60;2.40;;;18.60;41.80;;;;;;5010207;28;20228;-58
2022/03/28 00:06:32;;;;;;;2.63;2.53;;;18.60;41.00;;;;;;5008913;28;20432;-59
2022/03/28 00:08:57;;;;;;;2.80;2.70;;;18.60;41.10;;;;;;5010404;28;20754;-58
2022/03/28 00:11:23;;;;;;;2.67;2.47;;;18.60;41.10;;;;;;5007551;28;20234;-58
2022/03/28 00:13:49;;;;;;;2.10;2.00;;;18.60;41.10;;;;;;5009502;28;20599;-59
2022/03/28 00:16:14;;;;;;;2.20;2.10;;;18.60;41.10;;;;;;5009604;28;20310;-58
2022/03/28 00:18:40;;;;;;;2.90;2.60;;;18.60;41.10;;;;;;4998565;28;20586;-57
2022/03/28 00:21:06;;;;;;;2.90;2.50;;;18.60;41.10;;;;;;4990858;28;20239;-58
2022/03/28 00:23:32;;;;;;;5.00;2.57;;;18.60;41.10;;;;;;5008437;28;20298;-58
2022/03/28 00:25:58;;;;;;;3.07;2.87;;;18.60;41.10;;;;;;5008258;28;20227;-58
2022/03/28 00:28:24;;;;;;;2.57;2.37;;;18.60;41.10;;;;;;5008434;28;20346;-59
2022/03/28 00:30:50;;;;;;;3.37;3.17;;;18.60;41.10;;;;;;5010226;28;20940;-57
2022/03/28 00:33:16;;;;;;;2.80;2.60;;;18.60;41.10;;;;;;5009236;28;20544;-58
2022/03/28 00:35:42;;;;;;;2.90;2.70;;;18.60;41.10;;;;;;5008482;28;20551;-60
2022/03/28 00:38:09;;;;;;;2.83;2.63;;;18.60;41.10;;;;;;5005748;28;20220;-58
2022/03/28 00:40:35;;;;;;;3.33;2.50;;;18.60;41.10;;;;;;5009467;28;20238;-58
2022/03/28 00:43:08;;;;;;;2.57;2.40;;;18.50;41.10;;;;;;5006586;28;20937;-58
2022/03/28 00:45:35;;;;;;;2.50;2.30;;;18.60;41.20;;;;;;5008702;28;20251;-58
2022/03/28 00:48:01;;;;;;;2.67;2.53;;;18.50;41.00;;;;;;5008646;28;20630;-60
2022/03/28 00:50:30;;;;;;;2.53;2.33;;;18.60;41.10;;;;;;5007605;28;20424;-58
2022/03/28 00:52:57;;;;;;;2.70;2.50;;;18.50;41.10;;;;;;5008300;28;20439;-58
2022/03/28 00:55:23;;;;;;;2.67;2.47;;;18.60;41.10;;;;;;5009298;28;20424;-58
2022/03/28 00:57:49;;;;;;;2.20;2.10;;;18.50;41.10;;;;;;5010035;28;20431;-57
2022/03/28 01:00:15;;;;;;;2.73;2.63;;;18.50;41.00;;;;;;5008595;28;20711;-58
2022/03/28 01:02:41;;;;;;;3.20;3.00;;;18.50;41.10;;;;;;5008950;28;20444;-59
2022/03/28 01:05:07;;;;;;;2.77;2.60;;;18.50;41.00;;;;;;5009518;28;20427;-57
2022/03/28 01:07:34;;;;;;;2.80;2.60;;;18.50;41.10;;;;;;5006488;28;20526;-58
2022/03/28 01:10:00;;;;;;;2.50;2.30;;;18.50;41.00;;;;;;5006270;28;20462;-58
2022/03/28 01:12:27;;;;;;;2.83;2.63;;;18.50;41.10;;;;;;5008511;28;20932;-58
2022/03/28 01:14:54;;;;;;;2.63;2.43;;;18.50;41.00;;;;;;5008491;28;20420;-59
2022/03/28 01:20:06;;;;;;;2.77;2.57;;;18.50;41.00;;;;;;5007471;28;20431;-58
2022/03/28 01:22:31;;;;;;;2.97;2.77;;;18.50;41.10;;;;;;5007803;28;20519;-58
2022/03/28 01:25:00;;;;;;;2.70;2.50;;;18.50;41.10;;;;;;5008105;28;20526;-58
2022/03/28 01:27:25;;;;;;;2.87;2.37;;;18.50;41.10;;;;;;5005817;28;20728;-57
2022/03/28 01:29:51;;;;;;;2.70;2.50;;;18.50;41.00;;;;;;5006728;28;20524;-58
2022/03/28 01:32:17;;;;;;;2.57;2.37;;;18.50;41.00;;;;;;5008984;28;20236;-58
2022/03/28 01:34:42;;;;;;;2.80;2.60;;;18.50;41.10;;;;;;5008754;28;20678;-58
2022/03/28 01:37:08;;;;;;;2.63;2.43;;;18.50;41.10;;;;;;5006584;28;20242;-58
2022/03/28 01:39:34;;;;;;;2.50;2.27;;;18.50;41.00;;;;;;5006579;28;20270;-58
2022/03/28 01:41:59;;;;;;;2.53;2.37;;;18.50;41.10;;;;;;5005990;28;20295;-57
2022/03/28 01:44:26;;;;;;;3.03;2.83;;;18.50;41.00;;;;;;5006518;28;20235;-58
2022/03/28 01:46:51;;;;;;;2.83;2.63;;;18.50;41.00;;;;;;5008861;28;20801;-58
2022/03/28 01:49:19;;;;;;;3.17;2.97;;;18.50;41.00;;;;;;5007634;28;20540;-57
2022/03/28 01:51:46;;;;;;;2.33;2.23;;;18.50;41.00;;;;;;5006442;28;20224;-60
2022/03/28 01:54:13;;;;;;;2.27;2.13;;;18.50;41.00;;;;;;5006800;28;20484;-58
2022/03/28 01:56:40;;;;;;;2.90;2.70;;;18.50;41.00;;;;;;4989056;28;25999;-58
2022/03/28 01:59:06;;;;;;;2.70;2.50;;;18.50;41.00;;;;;;5008625;28;20457;-57
2022/03/28 02:01:32;;;;;;;2.40;2.30;;;18.50;41.00;;;;;;5007546;28;20436;-58
2022/03/28 02:03:58;;;;;;;2.20;2.10;;;18.50;41.00;;;;;;5008566;28;20519;-59
2022/03/28 02:06:24;;;;;;;2.50;2.40;;;18.50;41.00;;;;;;5008317;28;21019;-57
2022/03/28 02:08:50;;;;;;;2.67;2.47;;;18.50;41.00;;;;;;5006744;28;20223;-58
2022/03/28 02:11:16;;;;;;;2.53;2.33;;;18.50;41.00;;;;;;5008266;28;20439;-58
2022/03/28 02:13:42;;;;;;;2.40;2.30;;;18.50;40.90;;;;;;5006030;28;20262;-58
2022/03/28 02:16:09;;;;;;;2.60;2.40;;;18.50;41.00;;;;;;5007261;28;20319;-58
2022/03/28 02:18:35;;;;;;;2.47;2.07;;;18.50;41.00;;;;;;5007886;28;20224;-58
2022/03/28 02:21:01;;;;;;;2.70;2.50;;;18.50;41.00;;;;;;5008836;28;20998;-59
2022/03/28 02:23:27;;;;;;;2.60;2.50;;;18.50;41.00;;;;;;5006520;28;20228;-58
2022/03/28 02:25:53;;;;;;;3.73;2.70;;;18.50;41.00;;;;;;5008693;28;20251;-58
2022/03/28 02:28:18;;;;;;;2.67;2.50;;;18.50;41.10;;;;;;5004788;28;20813;-58
2022/03/28 02:30:44;;;;;;;2.50;2.30;;;18.50;41.00;;;;;;5007377;28;20220;-59
2022/03/28 02:33:09;;;;;;;2.30;2.20;;;18.50;41.00;;;;;;5006878;28;20278;-59
2022/03/28 02:35:35;;;;;;;2.70;2.50;;;18.50;41.00;;;;;;5008117;28;20223;-58
2022/03/28 02:38:01;;;;;;;2.70;2.50;;;18.50;41.00;;;;;;5007323;28;20303;-58
2022/03/28 02:40:32;;;;;;;2.60;2.43;;;18.50;41.00;;;;;;5008156;28;20428;-58
2022/03/28 02:42:58;;;;;;;2.50;2.30;;;18.50;41.00;;;;;;5007651;28;20464;-58
2022/03/28 02:45:25;;;;;;;2.53;2.43;;;18.50;41.00;;;;;;5009558;28;20535;-58
2022/03/28 02:47:51;;;;;;;2.33;2.23;;;18.50;40.90;;;;;;5010029;28;20424;-58
2022/03/28 02:50:16;;;;;;;2.93;2.73;;;18.50;40.90;;;;;;5011359;28;20474;-58
2022/03/28 02:52:42;;;;;;;2.97;2.77;;;18.50;41.70;;;;;;5010686;28;20263;-57
2022/03/28 02:55:09;;;;;;;2.80;2.60;;;18.50;41.00;;;;;;5010393;28;20575;-60
2022/03/28 02:57:34;;;;;;;3.30;3.10;;;18.50;40.90;;;;;;4991665;28;20740;-59
2022/03/28 03:00:00;;;;;;;2.63;2.53;;;18.50;41.00;;;;;;5011452;28;20428;-58
2022/03/28 03:02:26;;;;;;;2.73;2.53;;;18.50;40.90;;;;;;5011568;28;20420;-58
2022/03/28 03:04:51;;;;;;;3.43;3.23;;;18.50;41.00;;;;;;5010816;28;20226;-58
2022/03/28 03:07:18;;;;;;;2.80;2.60;;;18.50;40.80;;;;;;5010930;28;20220;-59
2022/03/28 03:09:44;;;;;;;2.33;2.13;;;18.50;40.90;;;;;;5010354;28;20236;-59
2022/03/28 03:12:09;;;;;;;2.60;2.40;;;18.50;40.90;;;;;;5008227;28;20416;-58
2022/03/28 03:14:35;;;;;;;2.70;2.53;;;18.50;40.80;;;;;;5008230;28;20224;-58
2022/03/28 03:17:02;;;;;;;2.40;2.20;;;18.50;41.00;;;;;;5011542;28;20246;-58
2022/03/28 03:19:28;;;;;;;2.33;2.23;;;18.50;40.90;;;;;;5008066;28;20208;-58
2022/03/28 03:21:54;;;;;;;2.10;2.00;;;18.50;41.00;;;;;;5009924;28;21042;-59
2022/03/28 03:24:19;;;;;;;3.00;2.80;;;18.50;40.90;;;;;;5008601;28;20453;-59
2022/03/28 03:26:45;;;;;;;2.83;2.63;;;18.50;40.90;;;;;;5009231;28;20687;-58
2022/03/28 03:29:11;;;;;;;2.80;2.60;;;18.50;41.00;;;;;;5010899;28;20227;-58
2022/03/28 03:31:37;;;;;;;2.20;2.10;;;18.50;40.90;;;;;;5010357;28;20248;-60
2022/03/28 03:34:03;;;;;;;2.47;2.27;;;18.50;40.90;;;;;;5009039;28;20454;-57
2022/03/28 03:36:29;;;;;;;2.30;2.10;;;18.50;40.80;;;;;;5010238;28;20860;-59
2022/03/28 03:38:54;;;;;;;2.90;2.70;;;18.50;40.90;;;;;;5010210;28;20559;-59
2022/03/28 03:41:20;;;;;;;2.70;2.50;;;18.50;40.90;;;;;;5009340;28;20224;-59
2022/03/28 03:43:46;;;;;;;2.23;2.13;;;18.50;40.90;;;;;;5010372;28;20270;-59
2022/03/28 03:46:11;;;;;;;2.23;2.13;;;18.50;40.90;;;;;;5009968;28;20231;-59
2022/03/28 03:48:37;;;;;;;2.63;2.50;;;18.50;41.00;;;;;;5009745;28;20706;-59
2022/03/28 03:51:03;;;;;;;2.63;2.47;;;18.50;41.00;;;;;;5009461;28;20769;-58
2022/03/28 03:53:28;;;;;;;2.43;2.33;;;18.50;41.00;;;;;;5008279;28;20235;-59
2022/03/28 03:55:54;;;;;;;3.03;2.83;;;18.50;41.00;;;;;;5007492;28;20626;-57
2022/03/28 03:58:19;;;;;;;2.40;2.30;;;18.50;41.00;;;;;;5009484;28;20327;-60
2022/03/28 04:00:45;;;;;;;2.50;2.23;;;18.50;41.00;;;;;;5009637;28;20220;-61
2022/03/28 04:03:11;;;;;;;2.97;2.77;;;18.50;41.00;;;;;;5010010;28;20743;-59
2022/03/28 04:05:37;;;;;;;2.20;2.10;;;18.50;40.90;;;;;;5005892;28;20311;-59
2022/03/28 04:08:05;;;;;;;2.80;2.60;;;18.50;40.90;;;;;;5010442;28;20715;-59
2022/03/28 04:10:31;;;;;;;2.43;2.27;;;18.50;41.00;;;;;;5008754;28;20461;-58
2022/03/28 04:12:57;;;;;;;2.50;2.40;;;18.50;40.90;;;;;;5008819;28;20548;-59
2022/03/28 04:15:23;;;;;;;2.40;2.30;;;18.50;40.90;;;;;;5008180;28;20511;-59
2022/03/28 04:17:48;;;;;;;2.30;2.20;;;18.50;40.90;;;;;;5007598;28;20235;-60
2022/03/28 04:20:15;;;;;;;2.20;2.10;;;18.50;40.90;;;;;;5006828;28;20223;-58
2022/03/28 04:22:43;;;;;;;2.60;2.40;;;18.50;40.80;;;;;;4992188;28;20633;-58
2022/03/28 04:25:10;;;;;;;2.43;2.33;;;18.50;40.80;;;;;;5007005;28;20507;-59
2022/03/28 04:27:37;;;;;;;2.50;2.30;;;18.50;40.80;;;;;;5007054;28;20450;-58
2022/03/28 04:30:08;;;;;;;2.33;2.13;;;18.50;40.80;;;;;;4991307;28;20436;-59
2022/03/28 04:32:34;;;;;;;2.50;2.40;;;18.50;40.90;;;;;;5009003;28;20455;-59
2022/03/28 04:35:01;;;;;;;2.83;2.53;;;18.50;40.80;;;;;;5007939;28;20433;-59
2022/03/28 04:37:35;;;;;;;2.50;2.40;;;18.50;40.80;;;;;;5008677;28;20870;-57
2022/03/28 04:40:03;;;;;;;2.20;2.10;;;18.50;40.70;;;;;;5004952;28;20440;-59
2022/03/28 04:42:29;;;;;;;3.60;3.40;;;18.60;40.70;;;;;;5004392;28;20741;-59
2022/03/28 04:44:54;;;;;;;3.43;3.23;;;18.60;40.60;;;;;;5008990;28;20916;-58
2022/03/28 04:47:20;;;;;;;2.80;2.60;;;18.60;40.30;;;;;;4990469;28;20236;-62
2022/03/28 04:49:45;;;;;;;2.27;2.17;;;18.70;40.20;;;;;;5008231;28;20219;-61
2022/03/28 04:52:11;;;;;;;3.03;2.83;;;18.70;40.20;;;;;;5009220;28;20714;-59
2022/03/28 04:54:36;;;;;;;2.67;2.47;;;18.70;40.20;;;;;;5008617;28;20235;-59
2022/03/28 04:57:05;;;;;;;2.53;2.43;;;18.70;40.20;;;;;;5006806;28;20289;-60
2022/03/28 04:59:32;;;;;;;3.03;2.73;;;18.70;40.30;;;;;;5009037;28;20223;-57
2022/03/28 05:01:58;;;;;;;2.80;2.70;;;18.70;40.30;;;;;;5006093;28;20491;-56
2022/03/28 05:04:25;;;;;;;2.20;2.10;;;18.70;40.30;;;;;;4991778;28;20825;-57
2022/03/28 05:06:50;;;;;;;2.80;2.60;;;18.70;40.40;;;;;;5007510;28;20428;-57
2022/03/28 05:09:16;;;;;;;2.60;2.40;;;18.70;40.30;;;;;;5009675;28;20414;-58
2022/03/28 05:11:42;;;;;;;2.40;2.30;;;18.70;40.30;;;;;;5009335;28;20224;-58
2022/03/28 05:14:08;;;;;;;2.87;2.67;;;18.70;41.10;;;;;;4991768;28;20238;-59
2022/03/28 05:16:34;;;;;;;2.67;2.47;;;18.70;40.40;;;;;;5005799;28;20278;-59
2022/03/28 05:19:00;;;;;;;2.60;2.43;;;18.70;40.50;;;;;;5006540;28;20448;-58
2022/03/28 05:21:25;;;;;;;2.93;2.73;;;18.70;40.50;;;;;;5007249;28;20676;-60
2022/03/28 05:23:51;;;;;;;2.90;2.70;;;18.70;40.40;;;;;;5009109;28;20611;-57
2022/03/28 05:26:16;;;;;;;2.07;1.97;;;18.70;40.50;;;;;;5006785;28;20234;-58
2022/03/28 05:28:42;;;;;;;2.60;2.50;;;18.70;40.50;;;;;;5008334;28;20239;-57
2022/03/28 05:31:08;;;;;;;2.70;2.50;;;18.70;40.40;;;;;;5005828;28;20346;-59
2022/03/28 05:33:33;;;;;;;3.43;2.87;;;18.70;40.40;;;;;;5002278;28;20708;-62
2022/03/28 05:35:59;;;;;;;1.93;1.80;;;18.70;40.40;;;;;;5002228;28;20231;-58
2022/03/28 05:38:25;;;;;;;2.43;2.23;;;18.70;40.40;;;;;;5004241;28;20310;-58
2022/03/28 05:40:50;;;;;;;2.80;2.60;;;18.70;40.40;;;;;;5001202;28;20805;-58
2022/03/28 05:43:17;;;;;;;2.73;2.40;;;18.70;40.40;;;;;;5002143;28;20647;-65
2022/03/28 05:45:42;;;;;;;3.17;2.87;;;18.70;40.40;;;;;;5004543;28;20219;-60
2022/03/28 05:48:08;;;;;;;2.47;2.27;;;18.70;40.40;;;;;;5006531;28;20877;-59
2022/03/28 05:50:34;;;;;;;2.80;2.67;;;18.70;40.40;;;;;;5004677;28;20299;-59
2022/03/28 05:53:00;;;;;;;2.60;2.20;;;18.70;40.40;;;;;;5007845;28;20664;-58
2022/03/28 05:55:25;;;;;;;3.77;2.60;;;18.70;40.50;;;;;;5009321;28;20681;-58
2022/03/28 05:57:51;;;;;;;2.50;2.30;;;18.70;40.40;;;;;;5007718;28;20212;-60
2022/03/28 06:00:17;;;;;;;2.80;2.60;;;18.70;40.40;;;;;;5009099;28;20269;-58
2022/03/28 06:02:43;;;;;;;2.70;2.50;;;18.70;40.40;;;;;;5003577;28;20303;-58
2022/03/28 06:05:09;;;;;;;2.63;2.43;;;18.70;40.40;;;;;;5005698;28;20253;-59
2022/03/28 06:07:35;;;;;;;3.30;3.00;;;18.70;40.50;;;;;;5008478;28;20449;-58
2022/03/28 06:10:01;;;;;;;2.50;2.30;;;18.70;40.40;;;;;;5008424;28;20444;-58
2022/03/28 06:12:27;;;;;;;2.90;2.70;;;18.70;40.50;;;;;;5006437;28;20274;-58
2022/03/28 06:14:52;;;;;;;2.43;2.33;;;18.70;40.50;;;;;;5007538;28;20440;-59
2022/03/28 06:17:25;;;;;;;2.60;2.40;;;18.70;40.50;;;;;;5006918;28;20208;-59
2022/03/28 06:19:51;;;;;;;2.93;2.73;;;18.70;40.40;;;;;;4989404;28;20311;-59
2022/03/28 06:22:17;;;;;;;2.40;2.30;;;18.70;40.50;;;;;;5009314;28;20484;-58
2022/03/28 06:24:44;;;;;;;2.83;2.63;;;18.70;40.40;;;;;;5011493;28;20453;-58
2022/03/28 06:27:09;;;;;;;2.40;2.20;;;18.60;40.30;;;;;;5007261;28;20235;-58
2022/03/28 06:29:35;;;;;;;2.40;2.30;;;18.70;40.40;;;;;;5012266;28;20442;-58
2022/03/28 06:32:01;;;;;;;2.80;2.60;;;18.70;40.40;;;;;;5010705;28;20282;-58
2022/03/28 06:34:27;;;;;;;3.30;3.10;;;18.60;40.30;;;;;;5010454;28;20223;-58
2022/03/28 06:36:52;;;;;;;3.00;2.80;;;18.70;40.40;;;;;;5011240;28;20481;-60
2022/03/28 06:39:18;;;;;;;3.10;2.90;;;18.60;40.30;;;;;;5011066;28;20207;-59
2022/03/28 06:41:44;;;;;;;3.27;2.93;;;18.60;40.30;;;;;;5011939;28;20215;-61
2022/03/28 06:44:11;;;;;;;3.10;2.90;;;18.60;40.30;;;;;;4993658;28;20278;-58
2022/03/28 06:46:39;;;;;;;2.47;2.37;;;18.70;40.40;;;;;;5005946;28;20212;-59
2022/03/28 06:49:05;;;;;;;3.00;2.83;;;18.60;40.30;;;;;;5010528;28;20452;-61
2022/03/28 06:51:30;;;;;;;2.80;2.43;;;18.70;40.40;;;;;;5012347;28;20411;-59
2022/03/28 06:53:56;;;;;;;2.63;2.50;;;18.60;40.30;;;;;;5009953;28;20232;-58
2022/03/28 06:56:22;;;;;;;2.30;2.20;;;18.60;40.30;;;;;;5009486;28;20219;-59
2022/03/28 06:58:47;;;;;;;3.07;2.60;;;18.60;40.30;;;;;;5012592;28;20220;-60
2022/03/28 07:01:13;;;;;;;2.40;2.20;;;18.70;40.40;;;;;;5010880;28;20231;-58
2022/03/28 07:03:39;;;;;;;3.13;2.60;;;18.60;41.00;;;;;;5011828;28;20220;-59
2022/03/28 07:06:04;;;;;;;2.70;2.50;;;18.60;40.30;;;;;;5011271;28;20723;-59
2022/03/28 07:08:30;;;;;;;2.40;2.20;;;18.70;40.40;;;;;;5010422;28;20254;-59
2022/03/28 07:10:58;;;;;;;3.10;2.90;;;18.70;40.40;;;;;;5005792;28;20318;-59
2022/03/28 07:13:23;;;;;;;2.97;2.73;;;18.70;40.40;;;;;;5008114;28;20278;-59
2022/03/28 07:15:49;;;;;;;2.60;2.40;;;18.70;41.10;;;;;;5006311;28;20928;-59
2022/03/28 07:18:15;;;;;;;3.10;2.77;;;18.70;40.40;;;;;;5004694;28;20232;-58
2022/03/28 07:20:43;;;;;;;2.60;2.50;;;18.70;40.40;;;;;;5009365;28;20217;-58
2022/03/28 07:23:09;;;;;;;3.60;3.30;;;18.70;40.40;;;;;;5008920;28;20346;-60
2022/03/28 07:25:36;;;;;;;2.60;2.40;;;18.70;40.40;;;;;;5007948;28;20920;-59
2022/03/28 07:28:12;;;;;;;2.27;2.17;;;18.70;40.40;;;;;;5009873;28;20503;-58
2022/03/28 07:30:39;;;;;;;2.83;2.63;;;18.70;40.40;;;;;;5009366;28;20532;-59
2022/03/28 07:33:06;;;;;;;2.57;2.37;;;18.70;40.40;;;;;;5008785;28;20448;-60
2022/03/28 07:35:35;;;;;;;2.73;2.60;;;18.70;40.50;;;;;;5010149;28;20498;-58
2022/03/28 07:38:07;;;;;;;2.63;2.43;;;18.70;40.40;;;;;;5008706;28;20470;-59
2022/03/28 07:40:40;;;;;;;2.57;2.40;;;18.70;40.40;;;;;;5007563;28;20906;-60
2022/03/28 07:43:07;;;;;;;2.80;2.60;;;18.70;40.40;;;;;;4992744;28;20452;-59
2022/03/28 07:45:33;;;;;;;2.63;2.43;;;18.70;40.40;;;;;;5007873;28;20490;-58
2022/03/28 07:47:58;;;;;;;2.90;2.70;;;18.70;40.50;;;;;;5008192;28;20439;-59
2022/03/28 07:50:24;;;;;;;2.60;2.50;;;18.70;40.80;;;;;;5009137;28;20427;-58
2022/03/28 07:52:50;;;;;;;2.63;2.43;;;18.70;40.40;;;;;;5006484;28;20286;-60
2022/03/28 07:55:17;;;;;;;2.40;2.30;;;18.70;40.40;;;;;;5009850;28;20251;-57
2022/03/28 07:57:43;;;;;;;2.50;2.37;;;18.70;40.50;;;;;;5008130;28;20224;-57
2022/03/28 08:00:12;;;;;;;3.80;2.73;;;18.70;40.40;;;;;;5008584;28;20914;-59
2022/03/28 08:02:38;;;;;;;7.83;2.60;;;18.70;40.50;;;;;;5008327;28;20520;-57
2022/03/28 08:05:05;;;;;;;2.63;2.53;;;18.70;40.50;;;;;;5009519;28;20424;-57
2022/03/28 08:07:31;;;;;;;2.60;2.40;;;18.70;40.40;;;;;;5009047;28;20790;-57
2022/03/28 08:09:57;;;;;;;3.03;2.87;;;18.70;40.40;;;;;;5009894;28;20448;-57
2022/03/28 08:12:22;;;;;;;2.60;2.50;;;18.70;40.40;;;;;;5007410;28;20212;-57
2022/03/28 08:14:49;;;;;;;2.70;2.50;;;18.70;40.40;;;;;;5010700;28;20218;-57
2022/03/28 08:17:16;;;;;;;2.97;2.77;;;18.70;40.40;;;;;;5006770;28;20371;-60
2022/03/28 08:19:42;;;;;;;2.83;2.63;;;18.70;40.40;;;;;;5009827;28;20579;-58
2022/03/28 08:22:08;;;;;;;2.60;2.50;;;18.70;40.50;;;;;;5007750;28;20511;-57
2022/03/28 08:24:34;;;;;;;3.70;2.60;;;18.70;40.50;;;;;;5010075;28;20215;-57
2022/03/28 08:26:59;;;;;;;3.17;2.97;;;18.70;40.40;;;;;;5009235;28;20801;-57
2022/03/28 08:29:25;;;;;;;2.87;2.67;;;18.70;40.40;;;;;;5009678;28;21131;-57
2022/03/28 08:31:51;;;;;;;3.17;2.97;;;18.70;40.40;;;;;;5008797;28;20602;-58
2022/03/28 08:34:19;;;;;;;2.80;2.60;;;18.70;40.40;;;;;;5010463;28;20432;-57
2022/03/28 08:36:45;;;;;;;2.30;2.20;;;18.70;40.40;;;;;;5008674;28;20680;-58
2022/03/28 08:39:10;;;;;;;3.17;2.97;;;18.70;40.50;;;;;;5005403;28;20453;-59
2022/03/28 08:41:36;;;;;;;2.90;2.70;;;18.70;40.50;;;;;;5007913;28;20299;-58
2022/03/28 08:44:03;;;;;;;2.53;2.43;;;18.70;40.50;;;;;;5007984;28;20270;-58
2022/03/28 08:46:29;;;;;;;3.20;2.97;;;18.80;40.50;;;;;;5006421;28;20454;-57
2022/03/28 08:48:57;;;;;;;2.77;2.57;;;18.70;40.50;;;;;;5006040;28;20427;-58
2022/03/28 08:51:23;;;;;;;2.80;2.60;;;18.70;40.50;;;;;;5009097;28;20942;-57
2022/03/28 08:53:48;;;;;;;3.20;2.90;;;18.70;40.50;;;;;;5006251;28;20500;-58
2022/03/28 08:56:14;;;;;;;2.93;2.73;;;18.70;40.50;;;;;;5009257;28;20215;-59
2022/03/28 08:58:40;;;;;;;2.67;2.50;;;18.70;40.50;;;;;;5006991;28;20307;-61
2022/03/28 09:01:06;;;;;;;2.70;2.50;;;18.70;40.50;;;;;;5009166;28;20849;-58
2022/03/28 09:03:47;;;;;;;2.70;2.50;;;18.70;40.50;;;;;;5008163;28;20224;-57
2022/03/28 09:06:37;;;;;;;2.70;2.60;;;18.70;41.20;;;;;;5008939;28;20437;-57
2022/03/28 09:09:24;;;;;;;2.63;2.43;;;18.70;40.50;;;;;;5004391;28;20441;-58
2022/03/28 09:12:04;;;;;;;2.53;2.37;;;18.70;40.50;;;;;;5007000;28;20428;-57
2022/03/28 09:14:37;;;;;;;3.30;3.10;;;18.70;40.50;;;;;;5008438;28;20476;-57
2022/03/28 09:17:11;;;;;;;3.13;2.93;;;18.70;40.50;;;;;;5005454;28;20519;-58
2022/03/28 09:19:45;;;;;;;2.80;2.60;;;18.70;40.60;;;;;;5005022;28;20491;-57
2022/03/28 09:22:13;;;;;;;2.50;2.37;;;18.70;40.50;;;;;;5006795;28;20459;-57
2022/03/28 09:24:38;;;;;;;2.90;2.70;;;18.70;40.60;;;;;;5008626;28;20495;-57
2022/03/28 09:27:11;;;;;;;2.77;2.57;;;18.70;41.30;;;;;;5008373;28;20427;-57
2022/03/28 09:29:56;;;;;;;2.77;2.57;;;18.70;40.60;;;;;;5005278;28;20220;-59
2022/03/28 09:32:24;;;;;;;2.83;2.63;;;18.70;40.60;;;;;;5006779;28;20423;-60
2022/03/28 09:35:12;;;;;;;3.30;3.10;;;18.70;40.60;;;;;;5008023;28;20482;-58
2022/03/28 09:38:01;;;;;;;2.80;2.60;;;18.70;40.60;;;;;;5005479;28;20450;-59
2022/03/28 09:40:38;;;;;;;2.53;2.43;;;18.70;40.60;;;;;;5002085;28;20424;-58
2022/03/28 09:43:29;;;;;;;3.03;2.83;;;18.70;40.60;;;;;;5008080;28;20479;-57
2022/03/28 09:45:56;;;;;;;2.50;2.30;;;18.70;40.60;;;;;;5003552;28;20918;-58
2022/03/28 09:48:27;;;;;;;2.90;2.80;;;18.70;40.60;;;;;;4991344;28;20761;-58
2022/03/28 09:50:59;;;;;;;3.30;3.10;;;18.70;40.70;;;;;;5008809;28;20420;-59
2022/03/28 09:53:33;;;;;;;2.97;2.80;;;18.70;40.60;;;;;;5009496;28;20446;-59
2022/03/28 09:56:01;;;;;;;2.80;2.60;;;18.70;40.70;;;;;;5011685;28;20441;-59
2022/03/28 09:58:38;;;;;;;2.70;2.50;;;18.70;40.70;;;;;;5011260;28;20445;-60
2022/03/28 10:01:32;;;;;;;2.67;2.53;;;18.70;40.60;;;;;;5011332;28;20502;-58
2022/03/28 10:04:05;;;;;;;3.00;2.80;;;18.70;40.70;;;;;;5009425;28;20436;-58
2022/03/28 10:06:32;;;;;;;2.40;2.27;;;18.70;40.70;;;;;;5011213;28;20452;-58
2022/03/28 10:08:58;;;;;;;2.87;2.67;;;18.70;40.70;;;;;;5010684;28;20432;-61
2022/03/28 10:11:25;;;;;;;2.70;2.60;;;18.70;40.70;;;;;;5012293;28;20595;-58
2022/03/28 10:13:51;;;;;;;2.87;2.53;;;18.70;40.70;;;;;;5011788;28;20436;-58
2022/03/28 10:16:17;;;;;;;2.70;2.40;;;18.70;40.70;;;;;;5011318;28;20975;-58
2022/03/28 10:18:49;;;;;;;2.90;2.70;;;18.70;40.80;;;;;;5011803;28;20408;-57
2022/03/28 10:21:29;;;;;;;2.50;2.37;;;18.70;40.70;;;;;;5009503;28;20224;-57
2022/03/28 10:24:12;;;;;;;2.17;2.00;;;18.70;40.70;;;;;;5006544;28;20597;-59
2022/03/28 10:26:47;;;;;;;2.90;2.70;;;18.70;40.80;;;;;;5011369;28;20496;-58
2022/03/28 10:29:18;;;;;;;2.43;2.33;;;18.70;40.80;;;;;;5009413;28;20509;-57
2022/03/28 10:31:55;;;;;;;2.83;2.63;;;18.70;40.80;;;;;;5009211;28;20449;-58
2022/03/28 10:34:41;;;;;;;2.70;2.50;;;18.70;40.80;;;;;;5010953;28;20461;-59
2022/03/28 10:37:24;;;;;;;2.47;2.37;;;18.70;40.80;;;;;;5007043;28;20537;-57
2022/03/28 10:39:50;;;;;;;2.60;2.40;;;18.70;40.80;;;;;;5007450;28;20446;-59
2022/03/28 10:42:24;;;;;;;2.50;2.40;;;18.70;41.60;;;;;;5009778;28;20495;-59
2022/03/28 10:45:11;;;;;;;2.70;2.50;;;18.70;40.80;;;;;;5007679;28;20226;-57
2022/03/28 10:47:49;;;;;;;2.70;2.60;;;18.70;40.90;;;;;;5010143;28;20430;-57
2022/03/28 10:50:18;;;;;;;2.60;2.50;;;18.60;40.80;;;;;;5009113;28;20414;-58
2022/03/28 10:53:11;;;;;;;2.70;2.50;;;18.70;40.90;;;;;;5007187;28;21069;-60
2022/03/28 10:55:55;;;;;;;2.40;2.20;;;18.70;40.90;;;;;;4982942;28;20445;-59
2022/03/28 10:58:27;;;;;;;3.00;2.80;;;18.60;40.80;;;;;;5005167;28;20503;-58
2022/03/28 11:01:11;;;;;;;2.53;2.33;;;18.60;40.80;;;;;;5007589;28;20587;-58
2022/03/28 11:03:38;;;;;;;2.80;2.60;;;18.60;40.90;;;;;;5009268;28;20442;-57
2022/03/28 11:06:05;;;;;;;2.87;2.67;;;18.60;40.90;;;;;;5007749;28;20454;-63
2022/03/28 11:08:46;;;;;;;2.97;2.77;;;18.60;40.90;;;;;;5009420;28;20507;-59
2022/03/28 11:11:24;;;;;;;3.30;3.10;;;18.60;40.90;;;;;;5008922;28;20461;-57
2022/03/28 11:14:09;;;;;;;3.03;2.83;;;18.60;40.90;;;;;;5007979;28;20587;-57
2022/03/28 11:16:43;;;;;;;3.20;3.00;;;18.60;40.90;;;;;;5009246;28;20436;-59
2022/03/28 11:19:29;;;;;;;3.57;3.37;;;18.60;41.00;;;;;;5010322;28;24787;-59
2022/03/28 11:22:16;;;;;;;3.27;3.07;;;18.60;40.90;;;;;;5009321;28;20437;-57
2022/03/28 11:24:54;;;;;;;3.27;3.07;;;18.60;40.90;;;;;;5008579;28;20415;-57
2022/03/28 11:27:22;;;;;;;3.90;3.60;;;18.60;40.90;;;;;;5009713;28;20442;-57
2022/03/28 11:29:49;;;;;;;3.50;3.27;;;18.60;40.90;;;;;;5010089;28;20428;-58
2022/03/28 11:32:17;;;;;;;3.40;3.17;;;18.60;40.90;;;;;;5010796;28;20768;-59
2022/03/28 11:34:54;;;;;;;2.90;2.60;;;18.60;41.00;;;;;;5008629;28;20443;-57
2022/03/28 11:37:23;;;;;;;3.67;3.37;;;18.60;40.90;;;;;;5008431;28;20420;-58
2022/03/28 11:40:07;;;;;;;2.80;2.60;;;18.60;41.00;;;;;;4999936;28;20876;-59
2022/03/28 11:42:36;;;;;;;3.30;3.03;;;18.60;41.00;;;;;;5009662;28;20482;-57
2022/03/28 11:45:10;;;;;;;3.70;3.50;;;18.60;41.00;;;;;;5007706;28;20453;-57
2022/03/28 11:47:37;;;;;;;3.10;2.90;;;18.60;41.00;;;;;;5005849;28;20451;-60
2022/03/28 11:50:07;;;;;;;2.87;2.67;;;18.60;41.00;;;;;;5010081;28;20448;-58
2022/03/28 11:52:34;;;;;;;3.00;2.80;;;18.60;41.00;;;;;;5007497;28;20424;-59
2022/03/28 11:55:00;;;;;;;3.20;3.00;;;18.60;41.00;;;;;;5008887;28;20427;-58
2022/03/28 12:00:18;;;;;;;3.30;3.10;;;18.60;41.00;;;;;;5007376;28;20460;-58
2022/03/28 12:02:51;;;;;;;3.13;2.93;;;18.60;41.00;;;;;;5006164;28;20470;-57
2022/03/28 12:05:34;;;;;;;3.30;3.10;;;18.60;41.00;;;;;;5009970;28;20808;-57
2022/03/28 12:08:13;;;;;;;4.13;3.93;;;18.60;41.00;;;;;;5009471;28;20449;-58
2022/03/28 12:10:42;;;;;;;3.07;2.87;;;18.60;41.00;;;;;;5007347;28;21127;-57
2022/03/28 12:13:09;;;;;;;3.50;3.30;;;18.60;41.00;;;;;;5009465;28;20461;-59
2022/03/28 12:15:45;;;;;;;3.23;3.03;;;18.60;41.00;;;;;;5006526;28;20458;-61
2022/03/28 12:18:12;;;;;;;3.67;3.47;;;18.60;41.10;;;;;;5009226;28;20428;-58
2022/03/28 12:20:43;;;;;;;3.37;3.17;;;18.60;41.10;;;;;;5009987;28;21049;-58
2022/03/28 12:23:12;;;;;;;3.23;3.03;;;18.60;41.10;;;;;;5007839;28;20603;-59
2022/03/28 12:25:49;;;;;;;3.90;3.60;;;18.60;41.10;;;;;;5010051;28;20824;-59
2022/03/28 12:28:24;;;;;;;3.60;3.40;;;18.60;41.00;;;;;;5007058;28;20418;-58
2022/03/28 12:30:55;;;;;;;3.70;3.43;;;18.60;41.00;;;;;;5009105;28;20498;-58
2022/03/28 12:33:27;;;;;;;3.70;3.50;;;18.60;41.10;;;;;;5009614;28;20450;-58
2022/03/28 12:36:22;;;;;;;3.90;3.70;;;18.60;41.10;;;;;;5009085;28;20496;-58
2022/03/28 12:38:59;;;;;;;3.70;3.50;;;18.60;41.10;;;;;;5007465;28;20434;-60
2022/03/28 12:41:28;;;;;;;4.17;3.87;;;18.60;41.10;;;;;;5009356;28;20554;-59
2022/03/28 12:43:54;;;;;;;3.63;3.43;;;18.60;41.10;;;;;;5006419;28;20446;-58
2022/03/28 12:46:22;;;;;;;4.20;4.00;;;18.60;41.20;;;;;;5007530;28;20495;-58
2022/03/28 12:48:57;;;;;;;3.90;3.60;;;18.60;42.00;;;;;;5008508;28;20422;-59
2022/03/28 12:51:31;;;;;;;3.97;3.67;;;18.60;41.10;;;;;;5009513;28;20416;-59
2022/03/28 12:54:05;;;;;;;4.33;4.13;;;18.60;41.20;;;;;;5007966;28;20457;-58
2022/03/28 12:56:46;;;;;;;5.00;4.60;;;18.60;41.20;;;;;;5009262;28;20473;-57
2022/03/28 12:59:30;;;;;;;4.20;3.90;;;18.60;41.10;;;;;;5009248;28;20523;-57
2022/03/28 13:02:07;;;;;;;4.10;3.90;;;18.60;41.20;;;;;;5006183;28;20449;-58